Terminal Aerodrome Forecast
Issued by NWS

Home | Current Version | Previous Version | Graphics & Text | Print | Product List | Glossary On
Versions: 1 2 3 4 5 6 7 8 9 10 11 12 13 14 15 16 17 18 19 20 21
000
FTUS43 KBIS 222103 AAA
TAFMOT
TAF AMD
KMOT 222103Z 2221/2318 21009KT P6SM VCTS SCT040CB
     FM230000 21007KT P6SM VCSH SCT060
     FM230600 23006KT P6SM SCT250=

USA.gov is the U.S. government's official web portal to all federal, state and local government web resources and services.